world map with LOXZ marked

LOXZ - Airport

This information may not be accurate or current and is not valid for navigation or flight planning. No warranty of fitness for any purpose is made or implied.

flag of Steiermark (Styria)flag of Austria

Donate via PayPal

Additional information is available on the NEW Great Circle Mapper

Location
City:  Zeltweg, Steiermark (Styria), Austria
Name:Zeltweg AB
ICAO:LOXZ

Details
Type:Airport (Aerodrome, Airfield)
Use:Military
Latitude:47°12'10"N (47.202751)
Longitude:14°44'39"E (14.744223)
Datum:WGS 1984
Elevation:2220 ft (677 m)
Runways:2
Longest:9022 × 197 ft (2750 × 60 m)

Time
Timezone:UTC+1 (DST+4)
Local Time:

Weather
METAR:LOXZ  041350Z 09004KT 50KM FEW048SC 03/M08 Q1026 NOSIG
TAF:LOXZ  (expired)

Related Locations
Nearby:
Farthest:CHT: 11847 mi / 19066 km
Waitangi [Tuuta], CIT, NZ

Find:

   beyond  
but within

Other Information
Maps:
Sources:

  


 


Great Circle Mapper   Great Circle Mapper
Great Circle Mapper FAQ   Great Circle Mapper FAQ
  Karl's Home Page
KLSē   KLSē Home
   GC on Facebook
Airlines of the World   Airlines of the World
Donate via PayPal


Copyright © 2004-2019, Karl L. Swartz. All rights reserved.
All trademarks mentioned herein belong to their respective owners.

Please see credits for attribution and copyright information.

Karl Swartz <karl@kls2.com>
  Powered by FreeBSD
Valid HTML 4.01!
Labeled with ICRA
hCard Microformat
Geo Microformat